Time;durP1;ratioP1;P1;durP2;ratioP2;P2;SDS_P1;SDS_P2;PMS_P1;PMS_P2;Temp;Humidity;BMP_temperature;BMP_pressure;BME280_temperature;BME280_humidity;BME280_pressure;Samples;Min_cycle;Max_cycle;Signal;HPM_P1;HPM_P2
2022/02/06 00:01:12;;;;;;;32.20;5.03;;;;;;;-142.75;100.00;77432.56;5001348;28;20818;-66
2022/02/06 00:03:38;;;;;;;24.37;4.63;;;;;;;-142.75;100.00;77426.66;4998401;28;20277;-65
2022/02/06 00:06:03;;;;;;;;;;;;;;;-142.75;100.00;77422.72;5001693;28;20037;-66
2022/02/06 00:08:29;;;;;;;33.33;4.80;;;;;;;-142.75;100.00;77422.72;5004488;28;19913;-66
2022/02/06 00:10:54;;;;;;;25.10;3.80;;;;;;;-142.75;100.00;77405.00;5008368;28;20029;-66
2022/02/06 00:13:19;;;;;;;32.00;4.45;;;;;;;-142.75;100.00;77418.78;5007544;28;20641;-66
2022/02/06 00:15:45;;;;;;;25.50;4.35;;;;;;;-142.75;100.00;77405.00;5000584;28;20077;-67
2022/02/06 00:18:10;;;;;;;25.38;4.38;;;;;;;-142.75;100.00;77405.00;5003756;28;20028;-66
2022/02/06 00:20:46;;;;;;;21.73;3.67;;;;;;;-142.75;100.00;77397.13;5007470;28;20026;-68
2022/02/06 00:23:13;;;;;;;25.98;4.60;;;;;;;-142.75;100.00;77393.19;5002884;28;20022;-66
2022/02/06 00:28:24;;;;;;;31.10;4.23;;;;;;;-142.75;100.00;77393.19;5001236;28;20027;-66
2022/02/06 00:30:58;;;;;;;25.90;4.60;;;;;;;-142.75;100.00;77385.31;5000354;28;20075;-66
2022/02/06 00:33:38;;;;;;;25.57;4.03;;;;;;;-142.75;100.00;77365.63;5010360;28;20032;-65
2022/02/06 00:41:25;;;;;;;28.40;4.38;;;;;;;-142.75;100.00;77349.88;5009502;28;20026;-68
2022/02/06 00:43:51;;;;;;;32.87;4.63;;;;;;;-142.75;100.00;77349.88;5010708;28;20392;-67
2022/02/06 00:46:18;;;;;;;33.30;5.30;;;;;;;-142.75;100.00;77326.25;5009577;28;20038;-67
2022/02/06 00:49:11;;;;;;;31.23;4.93;;;;;;;-142.75;100.00;77355.78;5010306;28;20013;-67
2022/02/06 00:51:59;;;;;;;24.07;4.97;;;;;;;-142.75;100.00;77332.16;5009628;28;20569;-66
2022/02/06 00:54:18;;;;;;;37.03;5.07;;;;;;;-142.75;100.00;77334.13;5009732;28;20057;-66
2022/02/06 00:56:43;;;;;;;30.52;4.35;;;;;;;-142.75;100.00;77326.25;5010522;28;20052;-67
2022/02/06 00:59:09;;;;;;;32.88;5.43;;;;;;;-142.75;100.00;77326.25;5010189;28;20022;-67
2022/02/06 01:01:36;;;;;;;30.02;4.50;;;;;;;-142.75;100.00;77322.31;5010958;28;20064;-67
2022/02/06 01:04:02;;;;;;;22.00;4.53;;;;;;;-142.75;100.00;77326.25;5010382;28;20022;-67
2022/02/06 01:06:27;;;;;;;35.15;5.35;;;;;;;-142.75;100.00;77334.13;5003387;28;20037;-67
2022/02/06 01:08:52;;;;;;;35.35;5.88;;;;;;;-142.75;100.00;77336.09;4984287;28;20470;-67
2022/02/06 01:11:18;;;;;;;23.93;5.83;;;;;;;-142.75;100.00;77320.34;5000210;28;20026;-67
2022/02/06 01:19:42;;;;;;;32.63;4.43;;;;;;;-142.75;100.00;77308.53;4929553;29;20521;-67
2022/02/06 01:22:11;;;;;;;35.33;5.43;;;;;;;-142.75;100.00;77306.56;4979873;28;20037;-67
2022/02/06 01:24:54;;;;;;;29.60;4.10;;;;;;;-142.75;100.00;77302.63;5002896;28;20411;-68
2022/02/06 01:27:23;;;;;;;37.70;4.67;;;;;;;-142.75;100.00;77292.78;4987361;28;20017;-68
2022/02/06 01:29:58;;;;;;;26.53;4.70;;;;;;;-142.75;100.00;77288.84;5004701;28;20049;-68
2022/02/06 01:32:32;;;;;;;26.70;4.53;;;;;;;-142.75;100.00;77279.00;5000452;28;20026;-67
2022/02/06 01:35:05;;;;;;;31.57;5.57;;;;;;;-142.75;100.00;77290.81;5004330;28;20110;-67
2022/02/06 01:37:38;;;;;;;43.07;5.33;;;;;;;-142.75;100.00;77296.72;5006654;28;20041;-69
2022/02/06 01:40:13;;;;;;;37.73;5.57;;;;;;;-142.75;100.00;77267.19;5000772;28;20408;-67
2022/02/06 01:42:51;;;;;;;32.70;4.93;;;;;;;-142.75;100.00;77277.03;5004223;28;20030;-68
2022/02/06 02:02:13;;;;;;;38.60;5.63;;;;;;;-142.75;100.00;77243.56;5010707;28;20546;-67
2022/02/06 02:22:56;;;;;;;29.23;4.23;;;;;;;-142.75;100.00;77219.94;5013231;28;20467;-68
2022/02/06 02:25:49;;;;;;;37.40;4.87;;;;;;;-142.75;100.00;77219.94;5013045;28;20519;-68
2022/02/06 02:31:11;;;;;;;28.13;4.43;;;;;;;-142.75;100.00;77212.06;5013191;28;20064;-68
2022/02/06 02:42:54;;;;;;;30.73;4.30;;;;;;;-142.75;100.00;77200.25;5013470;28;20053;-68
2022/02/06 02:47:18;;;;;;;32.87;4.30;;;;;;;-142.75;100.00;77184.50;5013468;28;20030;-68
2022/02/06 02:49:56;;;;;;;25.57;3.73;;;;;;;-142.75;100.00;77172.69;5012363;28;20840;-67
2022/02/06 02:52:39;;;;;;;31.07;5.80;;;;;;;-142.75;100.00;77180.56;5012895;28;20113;-68
2022/02/06 02:57:49;;;;;;;20.50;3.73;;;;;;;-142.75;100.00;77164.81;5012866;28;20033;-68
2022/02/06 03:02:47;;;;;;;31.60;3.90;;;;;;;-142.75;100.00;77162.84;5013236;28;20388;-68
2022/02/06 03:05:13;;;;;;;27.40;4.17;;;;;;;-142.75;100.00;77164.81;5012575;28;20022;-68
2022/02/06 03:07:38;;;;;;;29.75;3.97;;;;;;;-142.75;100.00;77153.00;5012415;28;20032;-68
2022/02/06 03:10:04;;;;;;;20.17;3.43;;;;;;;-142.75;100.00;77149.06;4994762;28;20021;-68
2022/02/06 03:12:32;;;;;;;30.27;5.18;;;;;;;-142.75;100.00;77154.97;5011902;28;20269;-67
2022/02/06 03:15:07;;;;;;;30.00;5.30;;;;;;;-142.75;100.00;77147.09;5012360;28;20033;-68
2022/02/06 03:17:38;;;;;;;31.00;4.40;;;;;;;-142.75;100.00;77143.16;5012063;28;20030;-68
2022/02/06 03:20:08;;;;;;;28.87;4.87;;;;;;;-142.75;100.00;77145.13;5012150;28;20025;-68
2022/02/06 03:22:46;;;;;;;24.97;3.97;;;;;;;-142.75;100.00;77154.97;5012106;28;20018;-68
2022/02/06 03:25:17;;;;;;;29.03;4.73;;;;;;;-142.75;100.00;77137.25;5012091;28;20028;-67
2022/02/06 03:27:43;;;;;;;24.80;4.00;;;;;;;-142.75;100.00;77147.09;5011795;28;20029;-67
2022/02/06 03:30:09;;;;;;;36.03;5.78;;;;;;;-142.75;100.00;77133.31;4994335;28;20032;-68
2022/02/06 03:32:34;;;;;;;28.40;4.25;;;;;;;-142.75;100.00;77131.34;5012404;28;20030;-68
2022/02/06 03:35:00;;;;;;;33.77;4.57;;;;;;;-142.75;100.00;77127.41;5011765;28;20026;-68
2022/02/06 03:37:25;;;;;;;27.42;4.32;;;;;;;-142.75;100.00;77125.44;5011586;28;20277;-68
2022/02/06 03:39:53;;;;;;;39.73;5.37;;;;;;;-142.75;100.00;77135.28;5011490;28;20030;-68
2022/02/06 03:42:18;;;;;;;28.10;4.27;;;;;;;-142.75;100.00;77121.50;5011683;28;20277;-68
2022/02/06 03:44:50;;;;;;;27.40;4.97;;;;;;;-142.75;100.00;77121.50;5011816;28;20029;-68
2022/02/06 03:47:19;;;;;;;34.23;4.13;;;;;;;-142.75;100.00;77125.44;5011593;28;20030;-68
2022/02/06 03:49:57;;;;;;;31.70;4.07;;;;;;;-142.75;100.00;77113.63;5011621;28;20109;-68
2022/02/06 03:52:29;;;;;;;31.63;4.43;;;;;;;-142.75;100.00;77111.66;5011279;28;20030;-68
2022/02/06 03:54:55;;;;;;;32.17;4.10;;;;;;;-142.75;100.00;77109.69;5011393;28;20032;-67
2022/02/06 03:57:20;;;;;;;41.80;4.45;;;;;;;-142.75;100.00;77113.63;5011463;28;20411;-68
2022/02/06 03:59:45;;;;;;;31.05;4.50;;;;;;;-142.75;100.00;77103.78;5011373;28;20345;-67
2022/02/06 04:02:10;;;;;;;29.45;4.00;;;;;;;-142.75;100.00;77103.78;5011932;28;20045;-68
2022/02/06 04:04:36;;;;;;;30.65;4.15;;;;;;;-142.75;100.00;77099.84;5011528;28;20025;-67
2022/02/06 04:07:06;;;;;;;31.20;4.55;;;;;;;-142.75;100.00;77086.06;5011286;28;20044;-68
2022/02/06 04:09:38;;;;;;;30.87;4.80;;;;;;;-142.75;100.00;77091.97;4993777;28;20383;-68
2022/02/06 04:12:05;;;;;;;29.60;4.57;;;;;;;-142.75;100.00;77088.03;5011453;28;20499;-68
2022/02/06 04:14:40;;;;;;;38.93;6.43;;;;;;;-142.75;100.00;77090.00;5011088;28;20030;-67
2022/02/06 04:17:18;;;;;;;29.97;4.63;;;;;;;-142.75;100.00;77070.31;4993560;28;20479;-68
2022/02/06 04:19:43;;;;;;;30.93;3.73;;;;;;;-142.75;100.00;77062.44;5010931;28;20399;-68
2022/02/06 04:22:09;;;;;;;34.87;6.57;;;;;;;-142.75;100.00;77074.25;5011160;28;20105;-68
2022/02/06 04:24:34;;;;;;;30.33;5.23;;;;;;;-142.75;100.00;77066.38;5010517;28;20279;-68
2022/02/06 04:26:59;;;;;;;40.28;4.38;;;;;;;-142.75;100.00;77046.69;4993285;28;20276;-68
2022/02/06 04:29:24;;;;;;;32.50;5.72;;;;;;;-142.75;100.00;77048.66;5010629;28;20481;-67
2022/02/06 04:31:51;;;;;;;34.35;4.82;;;;;;;-142.75;100.00;77036.84;5011321;28;20026;-67
2022/02/06 04:34:21;;;;;;;31.33;4.38;;;;;;;-142.75;100.00;77042.75;5010926;28;20064;-67
2022/02/06 04:37:00;;;;;;;28.43;5.20;;;;;;;-142.75;100.00;77032.91;5010684;28;20384;-68
2022/02/06 04:44:47;;;;;;;44.47;5.43;;;;;;;-142.75;100.00;77007.31;5010772;28;20276;-67
2022/02/06 05:14:20;;;;;;;38.17;5.70;;;;;;;-142.75;100.00;76964.00;5010265;28;20045;-68
2022/02/06 05:22:28;;;;;;;35.10;4.50;;;;;;;-142.75;100.00;76956.13;5010359;28;20040;-67
2022/02/06 05:25:20;;;;;;;30.33;3.97;;;;;;;-142.75;100.00;76936.44;5009720;28;20091;-66
2022/02/06 05:30:15;;;;;;;36.73;5.00;;;;;;;-142.75;100.00;76930.53;5007628;28;20495;-67
2022/02/06 05:32:58;;;;;;;41.70;6.37;;;;;;;-142.75;100.00;76928.56;5010700;28;20419;-67
2022/02/06 05:35:24;;;;;;;31.35;4.78;;;;;;;-142.75;100.00;76944.31;5010228;28;20037;-68
2022/02/06 05:37:50;;;;;;;33.35;5.47;;;;;;;-142.75;100.00;76952.19;5013498;28;20033;-67
2022/02/06 05:40:15;;;;;;;34.10;4.60;;;;;;;-142.75;100.00;76940.38;5013775;28;20026;-67
2022/02/06 05:42:42;;;;;;;38.63;4.38;;;;;;;-142.75;100.00;76930.53;5014121;28;20137;-67
2022/02/06 05:45:08;;;;;;;27.95;4.50;;;;;;;-142.75;100.00;76928.56;5013914;28;20143;-68
2022/02/06 05:47:34;;;;;;;;;;;;;;;-142.75;100.00;76932.50;5011921;28;20026;-67
2022/02/06 05:49:59;;;;;;;31.47;4.47;;;;;;;-142.75;100.00;76928.56;5013777;28;19920;-67
2022/02/06 05:52:26;;;;;;;41.78;5.97;;;;;;;-142.75;100.00;76928.56;5013749;28;20368;-67
2022/02/06 05:54:51;;;;;;;37.60;5.50;;;;;;;-142.75;100.00;76928.56;5013743;28;20108;-67
2022/02/06 05:57:17;;;;;;;34.85;5.07;;;;;;;-142.75;100.00;76934.47;5013819;28;21043;-67
2022/02/06 05:59:43;;;;;;;31.85;4.60;;;;;;;-142.75;100.00;76940.38;5013362;28;20032;-67
2022/02/06 06:02:08;;;;;;;30.42;4.75;;;;;;;-142.75;100.00;76936.44;5014501;28;20037;-67
2022/02/06 06:04:34;;;;;;;38.33;5.47;;;;;;;-142.75;100.00;76940.38;5013454;28;20364;-67
2022/02/06 06:07:01;;;;;;;36.40;4.63;;;;;;;-142.75;100.00;76936.44;5013554;28;20112;-67
2022/02/06 06:09:26;;;;;;;44.07;6.40;;;;;;;-142.75;100.00;76922.66;5013231;28;20030;-67
2022/02/06 06:11:51;;;;;;;33.58;5.85;;;;;;;-142.75;100.00;76920.69;5013362;28;20032;-67
2022/02/06 06:14:17;;;;;;;29.10;4.78;;;;;;;-142.75;100.00;76912.81;4995731;28;20022;-67
2022/02/06 06:16:42;;;;;;;44.35;4.72;;;;;;;-142.75;100.00;76918.72;5013558;28;20033;-67
2022/02/06 06:19:07;;;;;;;34.37;5.13;;;;;;;-142.75;100.00;76918.72;5012996;28;20030;-67
2022/02/06 06:21:38;;;;;;;32.20;5.68;;;;;;;-142.75;100.00;76897.06;5013501;28;20281;-67
2022/02/06 06:24:04;;;;;;;37.33;5.37;;;;;;;-142.75;100.00;76889.19;5013233;28;20113;-67
2022/02/06 06:26:34;;;;;;;27.40;4.25;;;;;;;-142.75;100.00;76869.50;5013255;28;20491;-67
2022/02/06 06:28:59;;;;;;;33.63;4.80;;;;;;;-142.75;100.00;76871.47;4995209;28;20018;-67
2022/02/06 06:31:26;;;;;;;28.67;4.05;;;;;;;-142.75;100.00;76865.56;5013027;28;20101;-67
2022/02/06 06:33:51;;;;;;;38.87;4.80;;;;;;;-142.75;100.00;76863.59;5013556;28;20032;-67
2022/02/06 06:36:19;;;;;;;32.78;3.85;;;;;;;-142.75;100.00;76861.63;5013063;28;20112;-67
2022/02/06 06:38:45;;;;;;;27.77;4.47;;;;;;;-142.75;100.00;76843.91;5036343;22;20061;-66
2022/02/06 06:41:10;;;;;;;35.05;5.03;;;;;;;-142.75;100.00;76836.03;5031685;28;20064;-67
2022/02/06 06:43:35;;;;;;;35.42;5.05;;;;;;;-142.75;100.00;76820.28;5014070;28;20459;-67
2022/02/06 06:46:01;;;;;;;30.80;4.22;;;;;;;-142.75;100.00;76832.09;5032672;28;20048;-67
2022/02/06 06:48:26;;;;;;;39.57;4.50;;;;;;;-142.75;100.00;76830.13;5037637;28;20031;-67
2022/02/06 06:50:51;;;;;;;36.85;4.38;;;;;;;-142.75;100.00;76824.22;5052522;28;20341;-67
2022/02/06 06:53:17;;;;;;;33.67;5.15;;;;;;;-142.75;100.00;76818.31;5052367;28;20025;-66
2022/02/06 06:55:45;;;;;;;28.48;5.13;;;;;;;-142.75;100.00;76812.41;5052299;28;20033;-67
2022/02/06 06:58:18;;;;;;;34.20;4.20;;;;;;;-142.75;100.00;76812.41;5032249;28;20028;-68
2022/02/06 07:00:55;;;;;;;43.10;6.03;;;;;;;-142.75;100.00;76802.56;5051372;28;20017;-66
2022/02/06 07:03:22;;;;;;;31.67;4.72;;;;;;;-142.75;100.00;76798.66;5034716;28;20154;-68
2022/02/06 07:05:48;;;;;;;29.13;4.57;;;;;;;-142.75;100.00;76798.66;5052190;28;20498;-67
2022/02/06 07:08:15;;;;;;;29.55;5.35;;;;;;;-142.75;100.00;76784.88;5051626;28;20020;-68
2022/02/06 07:10:41;;;;;;;23.65;3.72;;;;;;;-142.75;100.00;76784.88;5052184;28;20029;-68
2022/02/06 07:13:06;;;;;;;31.90;4.80;;;;;;;-142.75;100.00;76790.78;5051872;28;20115;-68
2022/02/06 07:15:31;;;;;;;30.90;5.20;;;;;;;-142.75;100.00;76790.78;5051817;28;20033;-68
2022/02/06 07:17:58;;;;;;;41.73;5.50;;;;;;;-142.75;100.00;76778.97;5051438;28;20276;-68
2022/02/06 07:20:23;;;;;;;31.73;5.07;;;;;;;-142.75;100.00;76782.91;5034083;28;20283;-68
2022/02/06 07:22:48;;;;;;;35.88;4.55;;;;;;;-142.75;100.00;76773.06;5051795;28;20079;-67
2022/02/06 07:25:14;;;;;;;33.30;4.15;;;;;;;-142.75;100.00;76782.91;5051638;28;20013;-68
2022/02/06 07:27:43;;;;;;;37.72;5.38;;;;;;;-142.75;100.00;76767.16;5052356;28;20025;-68
2022/02/06 07:30:10;;;;;;;37.38;5.35;;;;;;;-142.75;100.00;76769.13;5052105;28;20036;-69
2022/02/06 07:32:37;;;;;;;29.42;4.57;;;;;;;-142.75;100.00;76769.13;5052306;28;20043;-68
2022/02/06 07:35:05;;;;;;;27.13;4.05;;;;;;;-142.75;100.00;76773.06;5052231;28;20024;-68
2022/02/06 07:37:30;;;;;;;35.67;4.83;;;;;;;-142.75;100.00;76775.03;5052286;28;20024;-68
2022/02/06 07:39:55;;;;;;;27.90;3.47;;;;;;;-142.75;100.00;76759.28;5051728;28;20025;-68
2022/02/06 07:42:21;;;;;;;34.95;5.05;;;;;;;-142.75;100.00;76755.34;5034281;28;20075;-67
2022/02/06 07:44:48;;;;;;;34.13;4.22;;;;;;;-142.75;100.00;76755.34;5052083;28;20025;-68
2022/02/06 07:47:16;;;;;;;39.23;4.60;;;;;;;-142.75;100.00;76737.63;5052807;28;20028;-68
2022/02/06 07:49:45;;;;;;;28.00;5.10;;;;;;;-142.75;100.00;76753.38;5052721;28;20035;-68
2022/02/06 07:52:11;;;;;;;24.93;4.20;;;;;;;-142.75;100.00;76739.59;5053087;28;20024;-69
2022/02/06 07:54:37;;;;;;;35.05;5.55;;;;;;;-142.75;100.00;76745.50;5034936;28;20017;-67
2022/02/06 07:57:04;;;;;;;29.52;5.03;;;;;;;-142.75;100.00;76739.59;5034961;28;20532;-68
2022/02/06 07:59:30;;;;;;;21.97;3.70;;;;;;;-142.75;100.00;76735.66;5051495;28;20534;-68
2022/02/06 08:01:55;;;;;;;33.65;4.22;;;;;;;-142.75;100.00;76725.81;5052823;28;20104;-68
2022/02/06 08:04:20;;;;;;;29.17;4.47;;;;;;;-142.75;100.00;76725.81;5034897;28;20032;-68
2022/02/06 08:06:46;;;;;;;28.73;4.13;;;;;;;-142.75;100.00;76715.97;5052769;28;20303;-68
2022/02/06 08:09:11;;;;;;;25.05;3.92;;;;;;;-142.75;100.00;76714.00;5034503;28;20059;-67
2022/02/06 08:11:43;;;;;;;27.58;4.53;;;;;;;-142.75;100.00;76708.09;5046482;28;20067;-67
2022/02/06 08:14:09;;;;;;;32.07;4.10;;;;;;;-142.75;100.00;76712.03;5024061;28;20037;-68
2022/02/06 08:16:35;;;;;;;33.85;4.40;;;;;;;-142.75;100.00;76704.16;5041255;28;20017;-68
2022/02/06 08:19:00;;;;;;;;;;;;;;;-142.75;100.00;76694.31;5041816;28;20053;-68
2022/02/06 08:21:26;;;;;;;21.67;3.20;;;;;;;-142.75;100.00;76700.22;5023509;28;20409;-68
2022/02/06 08:23:51;;;;;;;24.83;3.72;;;;;;;-142.75;100.00;76690.38;5041725;28;20410;-68
2022/02/06 08:26:17;;;;;;;25.83;3.85;;;;;;;-142.75;100.00;76682.50;5044060;28;20021;-68
2022/02/06 08:28:43;;;;;;;34.50;4.78;;;;;;;-142.75;100.00;76678.56;5045482;28;20045;-69
2022/02/06 08:31:08;;;;;;;27.60;4.88;;;;;;;-142.75;100.00;76672.66;5040230;28;20648;-68
2022/02/06 08:33:34;;;;;;;19.58;3.35;;;;;;;-142.75;100.00;76668.72;5019617;28;20120;-68
2022/02/06 08:36:00;;;;;;;27.88;3.53;;;;;;;-142.75;100.00;76652.97;5032325;28;20083;-67
2022/02/06 08:38:25;;;;;;;16.02;2.95;;;;;;;-142.75;100.00;76656.91;5014055;28;20040;-68
2022/02/06 08:40:52;;;;;;;24.35;3.80;;;;;;;-142.75;100.00;76647.06;5032231;28;20032;-68
2022/02/06 08:43:17;;;;;;;23.00;3.83;;;;;;;-142.75;100.00;76645.09;5039614;28;20032;-67
2022/02/06 08:45:43;;;;;;;19.00;2.90;;;;;;;-142.75;100.00;76629.34;5050451;28;20028;-67
2022/02/06 08:48:08;;;;;;;29.40;5.27;;;;;;;-142.75;100.00;76621.47;5033715;28;20021;-69
2022/02/06 08:50:33;;;;;;;25.30;3.50;;;;;;;-142.75;100.00;76621.47;5051992;28;20274;-67
2022/02/06 08:52:59;;;;;;;19.58;3.05;;;;;;;-142.75;100.00;76619.50;5051985;28;20271;-68
2022/02/06 08:55:26;;;;;;;27.40;3.53;;;;;;;-142.75;100.00;76623.44;5051875;28;20123;-68
2022/02/06 08:57:51;;;;;;;20.13;4.57;;;;;;;-142.75;100.00;76609.66;5033703;28;20029;-67
2022/02/06 09:00:20;;;;;;;20.90;3.15;;;;;;;-142.75;100.00;76607.69;5051838;28;20100;-69
2022/02/06 09:02:46;;;;;;;22.50;2.77;;;;;;;-142.75;100.00;76605.72;5033873;28;20123;-69
2022/02/06 09:05:12;;;;;;;19.98;4.22;;;;;;;-142.75;100.00;76593.91;5051691;28;20116;-68
2022/02/06 09:07:40;;;;;;;20.77;2.37;;;;;;;-142.75;100.00;76578.16;5050667;28;20028;-68
2022/02/06 09:10:05;;;;;;;19.50;3.23;;;;;;;-142.75;100.00;76591.94;5032567;28;20445;-67
2022/02/06 09:12:31;;;;;;;16.00;3.35;;;;;;;-142.75;100.00;76578.16;5049886;28;20029;-67
2022/02/06 09:14:57;;;;;;;20.30;4.05;;;;;;;-142.75;100.00;76562.41;5032817;28;20021;-67
2022/02/06 09:17:23;;;;;;;14.57;2.60;;;;;;;-142.75;100.00;76562.41;5050542;28;20028;-68
2022/02/06 09:19:49;;;;;;;22.65;2.42;;;;;;;-142.75;100.00;76560.44;5050238;28;20028;-69
2022/02/06 09:22:15;;;;;;;19.53;3.20;;;;;;;-142.75;100.00;76548.63;5032671;28;20045;-69
2022/02/06 09:24:41;;;;;;;19.73;2.35;;;;;;;-142.75;100.00;76540.75;5047434;28;20049;-67
2022/02/06 09:27:08;;;;;;;18.67;2.77;;;;;;;-142.75;100.00;76548.63;5021219;28;20025;-67
2022/02/06 09:29:34;;;;;;;19.67;3.00;;;;;;;-142.75;100.00;76534.84;5039989;28;20025;-69
2022/02/06 09:37:05;;;;;;;19.13;3.07;;;;;;;-142.75;100.00;76530.91;5038980;28;20033;-67
2022/02/06 09:39:34;;;;;;;17.80;3.03;;;;;;;-142.75;100.00;76523.06;5039940;28;20021;-67
2022/02/06 09:42:00;;;;;;;20.47;2.87;;;;;;;-142.75;100.00;76499.44;5013437;28;20475;-67
2022/02/06 09:44:30;;;;;;;26.90;3.37;;;;;;;-142.75;100.00;76507.31;5036216;28;20032;-67
2022/02/06 09:46:58;;;;;;;20.50;2.93;;;;;;;-142.75;100.00;76479.75;5013097;28;20030;-68
2022/02/06 09:49:23;;;;;;;18.35;2.65;;;;;;;-142.75;100.00;76499.44;5030276;28;20029;-67
2022/02/06 09:51:49;;;;;;;23.10;3.10;;;;;;;-142.75;100.00;76503.38;5030375;28;20036;-67
2022/02/06 09:54:15;;;;;;;;;;;;;;;-142.75;100.00;76481.72;5030504;28;20037;-68
2022/02/06 09:56:46;;;;;;;22.50;3.57;;;;;;;-142.75;100.00;76465.97;5030555;28;19909;-66
2022/02/06 09:59:20;;;;;;;22.95;3.50;;;;;;;-142.75;100.00;76465.97;5012961;28;20021;-67
2022/02/06 10:01:51;;;;;;;16.23;2.50;;;;;;;-142.75;100.00;76465.97;5039113;28;20020;-66
2022/02/06 10:04:22;;;;;;;19.13;2.57;;;;;;;-142.75;100.00;76465.97;5039507;28;20014;-67
2022/02/06 10:07:03;;;;;;;21.17;2.35;;;;;;;-142.75;100.00;76450.22;5038653;28;20041;-67
2022/02/06 10:09:52;;;;;;;19.75;2.90;;;;;;;-142.75;100.00;76440.38;5020767;28;20032;-68
2022/02/06 10:12:20;;;;;;;18.55;2.67;;;;;;;-142.75;100.00;76440.38;5039535;28;20041;-67
2022/02/06 10:14:46;;;;;;;16.57;2.73;;;;;;;-142.75;100.00;76426.59;5031022;28;20021;-67
2022/02/06 10:17:12;;;;;;;21.00;3.20;;;;;;;-142.75;100.00;76424.63;5030416;28;20403;-66
2022/02/06 10:19:49;;;;;;;19.55;3.67;;;;;;;-142.75;100.00;76412.81;5030102;28;20024;-66
2022/02/06 10:22:36;;;;;;;19.00;3.10;;;;;;;-142.75;100.00;76416.75;5035411;28;20040;-67
2022/02/06 10:25:06;;;;;;;25.92;3.67;;;;;;;-142.75;100.00;76401.00;5041813;28;20155;-66
2022/02/06 10:28:03;;;;;;;23.77;2.85;;;;;;;-142.75;100.00;76395.09;5041327;28;20029;-66
2022/02/06 10:30:37;;;;;;;18.08;2.85;;;;;;;-142.75;100.00;76393.13;5035803;28;20123;-66
2022/02/06 10:33:18;;;;;;;24.25;4.32;;;;;;;-142.75;100.00;76397.06;5053408;28;20112;-66
2022/02/06 10:35:48;;;;;;;25.02;3.63;;;;;;;-142.75;100.00;76402.97;5035529;28;20021;-67
2022/02/06 10:38:16;;;;;;;24.02;3.17;;;;;;;-142.75;100.00;76389.19;5052903;28;20036;-67
2022/02/06 10:40:42;;;;;;;22.47;3.00;;;;;;;-142.75;100.00;76357.69;5053474;28;20033;-67
2022/02/06 10:43:11;;;;;;;19.90;3.28;;;;;;;-142.75;100.00;76365.56;5053270;28;20027;-67
2022/02/06 10:45:38;;;;;;;22.87;3.40;;;;;;;-142.75;100.00;76373.44;5053472;28;20021;-66
2022/02/06 10:48:16;;;;;;;19.45;5.05;;;;;;;-142.75;100.00;76353.78;5053109;28;20032;-67
2022/02/06 10:50:42;;;;;;;16.50;3.20;;;;;;;-142.75;100.00;76373.44;5053277;28;20024;-67
2022/02/06 10:53:11;;;;;;;23.40;3.22;;;;;;;-142.75;100.00;76387.22;5035245;28;20032;-67
2022/02/06 10:55:52;;;;;;;19.50;2.63;;;;;;;-142.75;100.00;76371.47;5053339;28;20105;-67
2022/02/06 10:58:18;;;;;;;21.27;3.10;;;;;;;-142.75;100.00;76349.81;5034855;28;20487;-67
2022/02/06 11:00:43;;;;;;;29.30;3.53;;;;;;;-142.75;100.00;76377.38;5053216;28;20104;-65
2022/02/06 11:03:23;;;;;;;28.20;4.90;;;;;;;-142.75;100.00;76395.09;5052964;28;20111;-66
2022/02/06 11:06:07;;;;;;;19.25;2.72;;;;;;;-142.75;100.00;76477.78;5053013;28;20529;-67
2022/02/06 11:08:34;;;;;;;6.80;1.43;;;;;;;-142.75;100.00;76568.31;5052465;28;20029;-67
2022/02/06 11:11:05;;;;;;;6.63;1.47;;;;;;;-142.75;100.00;76595.88;5052824;28;20437;-67
2022/02/06 11:13:32;;;;;;;9.57;1.43;;;;;;;-142.75;100.00;76637.22;5052885;28;20029;-67
2022/02/06 11:16:00;;;;;;;8.33;1.00;;;;;;;-142.75;100.00;76649.03;5052827;28;20026;-67
2022/02/06 11:18:32;;;;;;;8.60;1.27;;;;;;;-142.75;100.00;76682.50;5052407;28;20134;-67
2022/02/06 11:21:03;;;;;;;9.47;1.83;;;;;;;-142.75;100.00;76700.22;5052774;28;20051;-66
2022/02/06 11:23:38;;;;;;;15.17;1.70;;;;;;;-142.75;100.00;76704.16;5052845;28;20020;-68
2022/02/06 11:26:11;;;;;;;7.47;1.10;;;;;;;-142.75;100.00;76708.09;5034740;28;20115;-67
2022/02/06 11:28:38;;;;;;;14.70;1.30;;;;;;;-142.75;100.00;76723.84;5052261;28;20052;-67
2022/02/06 11:31:03;;;;;;;;;;;;;;;-142.75;100.00;76721.88;5053066;28;20036;-66
2022/02/06 11:33:28;;;;;;;8.93;1.50;;;;;;;-142.75;100.00;76735.66;5034406;28;19908;-65
2022/02/06 11:35:58;;;;;;;7.68;0.75;;;;;;;-142.75;100.00;76747.47;5052247;28;20029;-67
2022/02/06 11:44:52;;;;;;;7.40;1.17;;;;;;;-142.75;100.00;76775.03;5052397;28;20052;-67
2022/02/06 11:47:25;;;;;;;6.90;1.00;;;;;;;-142.75;100.00;76786.84;5052265;28;20067;-66
2022/02/06 11:49:54;;;;;;;7.27;0.90;;;;;;;-142.75;100.00;76767.16;5033913;28;20183;-68
2022/02/06 11:52:19;;;;;;;11.67;0.93;;;;;;;-142.75;100.00;76725.81;5034079;28;20032;-67
2022/02/06 11:54:57;;;;;;;7.70;0.68;;;;;;;-142.75;100.00;76714.00;5052197;28;20029;-67
2022/02/06 11:57:27;;;;;;;6.23;0.90;;;;;;;-142.75;100.00;76706.13;5051942;28;20067;-67
2022/02/06 12:00:01;;;;;;;5.63;0.93;;;;;;;-142.75;100.00;76704.16;5025532;28;20094;-68
2022/02/06 12:02:32;;;;;;;8.57;1.00;;;;;;;-142.75;100.00;76700.22;5032026;28;20029;-68
2022/02/06 12:05:27;;;;;;;5.80;0.90;;;;;;;-142.75;100.00;76715.97;5032014;28;20022;-67
2022/02/06 12:07:52;;;;;;;11.17;0.90;;;;;;;-142.75;100.00;76715.97;5031587;28;20045;-68
2022/02/06 12:10:37;;;;;;;11.63;1.30;;;;;;;-142.75;100.00;76704.16;5031940;28;20060;-67
2022/02/06 12:13:25;;;;;;;10.53;1.70;;;;;;;-142.75;100.00;76715.97;4964899;28;20044;-68
2022/02/06 12:16:00;;;;;;;10.27;1.87;;;;;;;-142.75;100.00;76735.66;5031668;28;20033;-67
2022/02/06 12:18:37;;;;;;;8.83;1.30;;;;;;;-142.75;100.00;76731.72;5031504;28;20487;-67
2022/02/06 12:21:10;;;;;;;14.70;1.67;;;;;;;-142.75;100.00;76735.66;5031501;28;20026;-67
2022/02/06 12:23:37;;;;;;;11.13;1.77;;;;;;;-142.75;100.00;76723.84;5031691;28;20028;-68
2022/02/06 12:26:23;;;;;;;15.60;2.03;;;;;;;-142.75;100.00;76731.72;5031444;28;20029;-67
2022/02/06 12:28:50;;;;;;;18.03;1.77;;;;;;;-142.75;100.00;76721.88;5031191;28;20033;-68
2022/02/06 12:31:15;;;;;;;13.83;1.83;;;;;;;-142.75;100.00;76727.78;5031448;28;20017;-67
2022/02/06 12:33:45;;;;;;;13.93;1.90;;;;;;;-142.75;100.00;76719.91;5031376;28;20032;-67
2022/02/06 12:39:21;;;;;;;8.20;1.93;;;;;;;-142.75;100.00;76702.19;5030907;28;20037;-67
2022/02/06 12:41:46;;;;;;;13.70;1.57;;;;;;;-142.75;100.00;76702.19;5031335;28;20030;-67
2022/02/06 12:44:16;;;;;;;12.05;1.60;;;;;;;-142.75;100.00;76688.41;5031477;28;20021;-67
2022/02/06 12:46:41;;;;;;;11.60;1.00;;;;;;;-142.75;100.00;76678.56;5030765;28;20053;-67
2022/02/06 12:49:06;;;;;;;7.97;1.60;;;;;;;-142.75;100.00;76658.88;5030842;28;20025;-67
2022/02/06 12:51:35;;;;;;;8.23;3.17;;;;;;;-142.75;100.00;76664.78;5031143;28;20021;-67
2022/02/06 12:54:08;;;;;;;8.43;2.50;;;;;;;-142.75;100.00;76664.78;5031082;28;20295;-68
2022/02/06 12:56:34;;;;;;;9.97;1.60;;;;;;;-142.75;100.00;76645.09;5031114;28;20055;-68
2022/02/06 12:59:00;;;;;;;15.30;1.45;;;;;;;-142.75;100.00;76649.03;5030675;28;20033;-67
2022/02/06 13:01:34;;;;;;;;;;;;;;;-142.75;100.00;76649.03;5031653;28;20029;-68
2022/02/06 13:03:59;;;;;;;6.90;1.37;;;;;;;-142.75;100.00;76651.00;5013161;28;19909;-67
2022/02/06 13:06:34;;;;;;;3.47;1.00;;;;;;;-142.75;100.00;76635.25;5030855;28;20541;-65
2022/02/06 13:08:59;;;;;;;10.30;1.27;;;;;;;-142.75;100.00;76627.38;5030143;28;20750;-66
2022/02/06 13:11:34;;;;;;;10.43;1.10;;;;;;;-142.75;100.00;76637.22;5013203;28;20057;-67
2022/02/06 13:14:29;;;;;;;6.17;1.10;;;;;;;-142.75;100.00;76643.13;5030744;28;20025;-67
2022/02/06 13:19:45;;;;;;;6.23;1.20;;;;;;;-142.75;100.00;76641.16;5031151;28;20030;-67